sensor_id;sensor_type;location;lat;lon;timestamp;P1;durP1;ratioP1;P2;durP2;ratioP2
27893;SDS011;15240;50.812;4.792;2022-12-07T00:02:12;59.40;;;33.50;;
27893;SDS011;15240;50.812;4.792;2022-12-07T00:04:38;54.67;;;31.20;;
27893;SDS011;15240;50.812;4.792;2022-12-07T00:07:04;48.57;;;32.30;;
27893;SDS011;15240;50.812;4.792;2022-12-07T00:09:30;55.07;;;32.60;;
27893;SDS011;15240;50.812;4.792;2022-12-07T00:11:56;53.83;;;31.73;;
27893;SDS011;15240;50.812;4.792;2022-12-07T00:14:22;55.80;;;34.90;;
27893;SDS011;15240;50.812;4.792;2022-12-07T00:16:51;58.40;;;32.97;;
27893;SDS011;15240;50.812;4.792;2022-12-07T00:19:17;58.23;;;33.63;;
27893;SDS011;15240;50.812;4.792;2022-12-07T00:21:44;58.73;;;32.93;;
27893;SDS011;15240;50.812;4.792;2022-12-07T00:24:10;56.70;;;32.40;;
27893;SDS011;15240;50.812;4.792;2022-12-07T00:26:38;55.70;;;32.73;;
27893;SDS011;15240;50.812;4.792;2022-12-07T00:29:06;58.83;;;34.67;;
27893;SDS011;15240;50.812;4.792;2022-12-07T00:31:33;63.63;;;34.47;;
27893;SDS011;15240;50.812;4.792;2022-12-07T00:34:03;59.47;;;32.93;;
27893;SDS011;15240;50.812;4.792;2022-12-07T00:36:29;56.83;;;33.70;;
27893;SDS011;15240;50.812;4.792;2022-12-07T00:38:56;62.33;;;35.57;;
27893;SDS011;15240;50.812;4.792;2022-12-07T00:41:23;60.50;;;34.00;;
27893;SDS011;15240;50.812;4.792;2022-12-07T00:43:51;57.63;;;34.67;;
27893;SDS011;15240;50.812;4.792;2022-12-07T00:46:17;55.37;;;34.17;;
27893;SDS011;15240;50.812;4.792;2022-12-07T00:48:44;65.63;;;35.77;;
27893;SDS011;15240;50.812;4.792;2022-12-07T00:51:11;59.50;;;34.47;;
27893;SDS011;15240;50.812;4.792;2022-12-07T00:53:37;59.90;;;35.50;;
27893;SDS011;15240;50.812;4.792;2022-12-07T00:56:14;65.47;;;35.13;;
27893;SDS011;15240;50.812;4.792;2022-12-07T00:58:40;60.90;;;33.83;;
27893;SDS011;15240;50.812;4.792;2022-12-07T01:01:07;57.03;;;34.23;;
27893;SDS011;15240;50.812;4.792;2022-12-07T01:03:33;57.70;;;33.87;;
27893;SDS011;15240;50.812;4.792;2022-12-07T01:06:00;60.10;;;35.70;;
27893;SDS011;15240;50.812;4.792;2022-12-07T01:08:27;56.10;;;34.80;;
27893;SDS011;15240;50.812;4.792;2022-12-07T01:11:00;61.00;;;36.20;;
27893;SDS011;15240;50.812;4.792;2022-12-07T01:13:27;59.07;;;35.83;;
27893;SDS011;15240;50.812;4.792;2022-12-07T01:15:55;60.67;;;35.33;;
27893;SDS011;15240;50.812;4.792;2022-12-07T01:18:21;62.97;;;36.10;;
27893;SDS011;15240;50.812;4.792;2022-12-07T01:20:56;64.20;;;36.40;;
27893;SDS011;15240;50.812;4.792;2022-12-07T01:23:23;67.80;;;36.93;;
27893;SDS011;15240;50.812;4.792;2022-12-07T01:25:58;60.43;;;37.03;;
27893;SDS011;15240;50.812;4.792;2022-12-07T01:28:25;63.80;;;36.90;;
27893;SDS011;15240;50.812;4.792;2022-12-07T01:30:55;65.07;;;37.13;;
27893;SDS011;15240;50.812;4.792;2022-12-07T01:33:21;63.67;;;37.43;;
27893;SDS011;15240;50.812;4.792;2022-12-07T01:35:47;59.73;;;35.43;;
27893;SDS011;15240;50.812;4.792;2022-12-07T01:38:13;64.80;;;36.53;;
27893;SDS011;15240;50.812;4.792;2022-12-07T01:40:39;64.30;;;36.67;;
27893;SDS011;15240;50.812;4.792;2022-12-07T01:43:14;59.87;;;34.93;;
27893;SDS011;15240;50.812;4.792;2022-12-07T01:45:41;64.53;;;37.10;;
27893;SDS011;15240;50.812;4.792;2022-12-07T01:48:07;61.83;;;36.57;;
27893;SDS011;15240;50.812;4.792;2022-12-07T01:50:35;63.70;;;35.73;;
27893;SDS011;15240;50.812;4.792;2022-12-07T01:53:02;61.83;;;35.07;;
27893;SDS011;15240;50.812;4.792;2022-12-07T01:55:29;64.33;;;35.30;;
27893;SDS011;15240;50.812;4.792;2022-12-07T01:57:55;64.90;;;36.53;;
27893;SDS011;15240;50.812;4.792;2022-12-07T02:00:22;63.13;;;35.77;;
27893;SDS011;15240;50.812;4.792;2022-12-07T02:02:49;62.80;;;36.00;;
27893;SDS011;15240;50.812;4.792;2022-12-07T02:05:17;64.80;;;35.93;;
27893;SDS011;15240;50.812;4.792;2022-12-07T02:07:43;69.63;;;39.83;;
27893;SDS011;15240;50.812;4.792;2022-12-07T02:10:12;64.43;;;38.13;;
27893;SDS011;15240;50.812;4.792;2022-12-07T02:12:38;68.67;;;39.20;;
27893;SDS011;15240;50.812;4.792;2022-12-07T02:15:04;69.33;;;40.23;;
27893;SDS011;15240;50.812;4.792;2022-12-07T02:20:38;69.10;;;39.93;;
27893;SDS011;15240;50.812;4.792;2022-12-07T02:23:14;72.47;;;39.97;;
27893;SDS011;15240;50.812;4.792;2022-12-07T02:26:07;75.03;;;40.87;;
27893;SDS011;15240;50.812;4.792;2022-12-07T02:31:18;69.60;;;39.77;;
27893;SDS011;15240;50.812;4.792;2022-12-07T02:36:41;80.13;;;41.40;;
27893;SDS011;15240;50.812;4.792;2022-12-07T02:39:19;77.63;;;41.73;;
27893;SDS011;15240;50.812;4.792;2022-12-07T02:41:50;76.50;;;41.20;;
27893;SDS011;15240;50.812;4.792;2022-12-07T02:44:18;81.03;;;41.47;;
27893;SDS011;15240;50.812;4.792;2022-12-07T02:46:47;78.33;;;41.27;;
27893;SDS011;15240;50.812;4.792;2022-12-07T02:49:15;81.37;;;42.50;;
27893;SDS011;15240;50.812;4.792;2022-12-07T02:51:42;76.87;;;41.47;;
27893;SDS011;15240;50.812;4.792;2022-12-07T02:54:13;83.57;;;42.47;;
27893;SDS011;15240;50.812;4.792;2022-12-07T02:56:47;78.77;;;40.70;;
27893;SDS011;15240;50.812;4.792;2022-12-07T03:01:50;77.60;;;42.33;;
27893;SDS011;15240;50.812;4.792;2022-12-07T03:04:25;80.97;;;41.77;;
27893;SDS011;15240;50.812;4.792;2022-12-07T03:07:42;78.23;;;41.13;;
27893;SDS011;15240;50.812;4.792;2022-12-07T03:12:14;73.70;;;40.40;;
27893;SDS011;15240;50.812;4.792;2022-12-07T03:14:45;81.50;;;41.13;;
27893;SDS011;15240;50.812;4.792;2022-12-07T03:17:18;84.10;;;42.43;;
27893;SDS011;15240;50.812;4.792;2022-12-07T03:19:46;88.80;;;44.47;;
27893;SDS011;15240;50.812;4.792;2022-12-07T03:22:16;89.53;;;44.33;;
27893;SDS011;15240;50.812;4.792;2022-12-07T03:24:47;83.93;;;42.70;;
27893;SDS011;15240;50.812;4.792;2022-12-07T03:27:31;87.17;;;43.60;;
27893;SDS011;15240;50.812;4.792;2022-12-07T03:29:59;92.43;;;45.43;;
27893;SDS011;15240;50.812;4.792;2022-12-07T03:35:01;89.93;;;43.93;;
27893;SDS011;15240;50.812;4.792;2022-12-07T03:37:31;89.43;;;43.47;;
27893;SDS011;15240;50.812;4.792;2022-12-07T03:40:16;88.67;;;44.93;;
27893;SDS011;15240;50.812;4.792;2022-12-07T03:42:44;81.57;;;42.10;;
27893;SDS011;15240;50.812;4.792;2022-12-07T03:45:10;84.70;;;42.77;;
27893;SDS011;15240;50.812;4.792;2022-12-07T03:47:53;83.10;;;41.87;;
27893;SDS011;15240;50.812;4.792;2022-12-07T03:50:43;82.10;;;41.40;;
27893;SDS011;15240;50.812;4.792;2022-12-07T03:53:44;82.40;;;40.70;;
27893;SDS011;15240;50.812;4.792;2022-12-07T03:56:02;76.93;;;39.37;;
27893;SDS011;15240;50.812;4.792;2022-12-07T03:58:29;85.83;;;42.80;;
27893;SDS011;15240;50.812;4.792;2022-12-07T04:00:55;88.60;;;41.97;;
27893;SDS011;15240;50.812;4.792;2022-12-07T04:03:22;84.57;;;40.73;;
27893;SDS011;15240;50.812;4.792;2022-12-07T04:05:48;83.40;;;40.40;;
27893;SDS011;15240;50.812;4.792;2022-12-07T04:08:14;83.20;;;40.67;;
27893;SDS011;15240;50.812;4.792;2022-12-07T04:10:40;84.83;;;41.13;;
27893;SDS011;15240;50.812;4.792;2022-12-07T04:13:06;82.07;;;42.07;;
27893;SDS011;15240;50.812;4.792;2022-12-07T04:15:32;83.20;;;41.77;;
27893;SDS011;15240;50.812;4.792;2022-12-07T04:17:58;79.13;;;40.90;;
27893;SDS011;15240;50.812;4.792;2022-12-07T04:20:24;83.87;;;42.43;;
27893;SDS011;15240;50.812;4.792;2022-12-07T04:22:50;84.33;;;41.93;;
27893;SDS011;15240;50.812;4.792;2022-12-07T04:25:16;80.17;;;43.27;;
27893;SDS011;15240;50.812;4.792;2022-12-07T04:27:42;83.90;;;43.70;;
27893;SDS011;15240;50.812;4.792;2022-12-07T04:30:09;80.73;;;42.43;;
27893;SDS011;15240;50.812;4.792;2022-12-07T04:32:35;85.70;;;41.97;;
27893;SDS011;15240;50.812;4.792;2022-12-07T04:35:01;81.27;;;41.93;;
27893;SDS011;15240;50.812;4.792;2022-12-07T04:37:27;82.13;;;40.03;;
27893;SDS011;15240;50.812;4.792;2022-12-07T04:39:53;80.00;;;39.93;;
27893;SDS011;15240;50.812;4.792;2022-12-07T04:42:20;78.40;;;40.17;;
27893;SDS011;15240;50.812;4.792;2022-12-07T04:44:46;76.60;;;39.30;;
27893;SDS011;15240;50.812;4.792;2022-12-07T04:47:12;74.97;;;38.03;;
27893;SDS011;15240;50.812;4.792;2022-12-07T04:49:38;78.03;;;39.37;;
27893;SDS011;15240;50.812;4.792;2022-12-07T04:52:04;74.63;;;37.10;;
27893;SDS011;15240;50.812;4.792;2022-12-07T04:54:30;73.73;;;39.27;;
27893;SDS011;15240;50.812;4.792;2022-12-07T04:56:56;72.67;;;36.80;;
27893;SDS011;15240;50.812;4.792;2022-12-07T04:59:22;65.90;;;35.97;;
27893;SDS011;15240;50.812;4.792;2022-12-07T05:01:48;69.47;;;37.47;;
27893;SDS011;15240;50.812;4.792;2022-12-07T05:04:14;71.97;;;38.33;;
27893;SDS011;15240;50.812;4.792;2022-12-07T05:06:41;77.07;;;39.33;;
27893;SDS011;15240;50.812;4.792;2022-12-07T05:09:07;76.50;;;39.70;;
27893;SDS011;15240;50.812;4.792;2022-12-07T05:11:33;67.00;;;36.70;;
27893;SDS011;15240;50.812;4.792;2022-12-07T05:14:12;69.40;;;37.77;;
27893;SDS011;15240;50.812;4.792;2022-12-07T05:16:39;75.03;;;40.27;;
27893;SDS011;15240;50.812;4.792;2022-12-07T05:19:05;74.13;;;39.13;;
27893;SDS011;15240;50.812;4.792;2022-12-07T05:21:32;76.53;;;40.30;;
27893;SDS011;15240;50.812;4.792;2022-12-07T05:23:58;78.17;;;40.63;;
27893;SDS011;15240;50.812;4.792;2022-12-07T05:26:25;76.67;;;39.23;;
27893;SDS011;15240;50.812;4.792;2022-12-07T05:28:51;72.63;;;38.53;;
27893;SDS011;15240;50.812;4.792;2022-12-07T05:31:17;65.30;;;37.20;;
27893;SDS011;15240;50.812;4.792;2022-12-07T05:33:43;68.43;;;36.50;;
27893;SDS011;15240;50.812;4.792;2022-12-07T05:36:09;71.00;;;36.83;;
27893;SDS011;15240;50.812;4.792;2022-12-07T05:38:36;75.13;;;36.90;;
27893;SDS011;15240;50.812;4.792;2022-12-07T05:41:02;62.20;;;35.20;;
27893;SDS011;15240;50.812;4.792;2022-12-07T05:43:29;67.73;;;36.53;;
27893;SDS011;15240;50.812;4.792;2022-12-07T05:45:55;72.87;;;37.53;;
27893;SDS011;15240;50.812;4.792;2022-12-07T05:48:21;76.57;;;37.83;;
27893;SDS011;15240;50.812;4.792;2022-12-07T05:50:47;78.70;;;38.53;;
27893;SDS011;15240;50.812;4.792;2022-12-07T05:53:14;73.37;;;39.00;;
27893;SDS011;15240;50.812;4.792;2022-12-07T05:55:40;72.03;;;38.83;;
27893;SDS011;15240;50.812;4.792;2022-12-07T05:58:06;73.53;;;37.63;;
27893;SDS011;15240;50.812;4.792;2022-12-07T06:00:50;75.80;;;38.23;;
27893;SDS011;15240;50.812;4.792;2022-12-07T06:03:17;72.43;;;37.70;;
27893;SDS011;15240;50.812;4.792;2022-12-07T06:05:43;74.80;;;38.33;;
27893;SDS011;15240;50.812;4.792;2022-12-07T06:08:09;71.77;;;37.63;;
27893;SDS011;15240;50.812;4.792;2022-12-07T06:10:35;73.67;;;38.00;;
27893;SDS011;15240;50.812;4.792;2022-12-07T06:13:01;71.27;;;37.20;;
27893;SDS011;15240;50.812;4.792;2022-12-07T06:15:27;72.07;;;37.73;;
27893;SDS011;15240;50.812;4.792;2022-12-07T06:17:53;69.53;;;36.37;;
27893;SDS011;15240;50.812;4.792;2022-12-07T06:20:19;67.93;;;35.90;;
27893;SDS011;15240;50.812;4.792;2022-12-07T06:22:45;71.67;;;36.50;;
27893;SDS011;15240;50.812;4.792;2022-12-07T06:25:11;70.17;;;35.93;;
27893;SDS011;15240;50.812;4.792;2022-12-07T06:27:37;70.53;;;37.73;;
27893;SDS011;15240;50.812;4.792;2022-12-07T06:30:03;66.15;;;36.25;;
27893;SDS011;15240;50.812;4.792;2022-12-07T06:32:33;71.30;;;37.87;;
27893;SDS011;15240;50.812;4.792;2022-12-07T06:34:59;63.73;;;35.93;;
27893;SDS011;15240;50.812;4.792;2022-12-07T06:37:27;70.00;;;37.23;;
27893;SDS011;15240;50.812;4.792;2022-12-07T06:39:53;69.70;;;35.40;;
27893;SDS011;15240;50.812;4.792;2022-12-07T06:42:20;69.80;;;37.33;;
27893;SDS011;15240;50.812;4.792;2022-12-07T06:44:46;63.47;;;33.87;;
27893;SDS011;15240;50.812;4.792;2022-12-07T06:47:12;70.63;;;37.57;;
27893;SDS011;15240;50.812;4.792;2022-12-07T06:49:38;77.37;;;38.53;;
27893;SDS011;15240;50.812;4.792;2022-12-07T06:52:04;67.93;;;36.47;;
27893;SDS011;15240;50.812;4.792;2022-12-07T06:54:30;70.87;;;37.83;;
27893;SDS011;15240;50.812;4.792;2022-12-07T06:56:56;67.87;;;37.53;;
27893;SDS011;15240;50.812;4.792;2022-12-07T06:59:22;71.30;;;35.97;;
27893;SDS011;15240;50.812;4.792;2022-12-07T07:01:48;69.40;;;37.27;;
27893;SDS011;15240;50.812;4.792;2022-12-07T07:04:14;69.93;;;36.80;;
27893;SDS011;15240;50.812;4.792;2022-12-07T07:06:40;67.07;;;34.97;;
27893;SDS011;15240;50.812;4.792;2022-12-07T07:09:06;64.83;;;35.13;;
27893;SDS011;15240;50.812;4.792;2022-12-07T07:11:34;67.30;;;36.23;;
27893;SDS011;15240;50.812;4.792;2022-12-07T07:14:00;72.77;;;36.03;;
27893;SDS011;15240;50.812;4.792;2022-12-07T07:16:27;69.40;;;36.17;;
27893;SDS011;15240;50.812;4.792;2022-12-07T07:18:54;64.47;;;36.30;;
27893;SDS011;15240;50.812;4.792;2022-12-07T07:21:20;70.30;;;37.33;;
27893;SDS011;15240;50.812;4.792;2022-12-07T07:23:47;69.20;;;37.67;;
27893;SDS011;15240;50.812;4.792;2022-12-07T07:26:13;73.87;;;38.40;;
27893;SDS011;15240;50.812;4.792;2022-12-07T07:28:39;71.80;;;38.87;;
27893;SDS011;15240;50.812;4.792;2022-12-07T07:31:05;83.23;;;40.77;;
27893;SDS011;15240;50.812;4.792;2022-12-07T07:33:31;71.20;;;39.70;;
27893;SDS011;15240;50.812;4.792;2022-12-07T07:35:57;83.97;;;40.80;;
27893;SDS011;15240;50.812;4.792;2022-12-07T07:38:23;76.70;;;42.27;;
27893;SDS011;15240;50.812;4.792;2022-12-07T07:40:49;85.97;;;42.00;;
27893;SDS011;15240;50.812;4.792;2022-12-07T07:43:16;80.67;;;40.73;;
27893;SDS011;15240;50.812;4.792;2022-12-07T07:45:42;78.83;;;40.80;;
27893;SDS011;15240;50.812;4.792;2022-12-07T07:48:08;75.63;;;42.20;;
27893;SDS011;15240;50.812;4.792;2022-12-07T07:50:34;77.80;;;40.33;;
27893;SDS011;15240;50.812;4.792;2022-12-07T07:53:00;85.60;;;41.63;;
27893;SDS011;15240;50.812;4.792;2022-12-07T07:55:26;81.30;;;41.73;;
27893;SDS011;15240;50.812;4.792;2022-12-07T07:57:52;82.13;;;41.17;;
27893;SDS011;15240;50.812;4.792;2022-12-07T08:00:18;82.70;;;39.70;;
27893;SDS011;15240;50.812;4.792;2022-12-07T08:02:44;69.43;;;37.87;;
27893;SDS011;15240;50.812;4.792;2022-12-07T08:05:11;74.63;;;37.30;;
27893;SDS011;15240;50.812;4.792;2022-12-07T08:07:37;70.73;;;37.73;;
27893;SDS011;15240;50.812;4.792;2022-12-07T08:10:04;71.47;;;36.20;;
27893;SDS011;15240;50.812;4.792;2022-12-07T08:12:30;76.20;;;38.97;;
27893;SDS011;15240;50.812;4.792;2022-12-07T08:14:56;68.13;;;36.93;;
27893;SDS011;15240;50.812;4.792;2022-12-07T08:17:22;71.27;;;38.33;;
27893;SDS011;15240;50.812;4.792;2022-12-07T08:19:48;71.00;;;37.40;;
27893;SDS011;15240;50.812;4.792;2022-12-07T08:22:16;68.37;;;37.10;;
27893;SDS011;15240;50.812;4.792;2022-12-07T08:24:42;76.40;;;36.57;;
27893;SDS011;15240;50.812;4.792;2022-12-07T08:27:08;61.00;;;34.07;;
27893;SDS011;15240;50.812;4.792;2022-12-07T08:29:34;64.77;;;35.27;;
27893;SDS011;15240;50.812;4.792;2022-12-07T08:32:00;65.90;;;34.10;;
27893;SDS011;15240;50.812;4.792;2022-12-07T08:34:26;69.13;;;33.97;;
27893;SDS011;15240;50.812;4.792;2022-12-07T08:36:52;59.87;;;31.40;;
27893;SDS011;15240;50.812;4.792;2022-12-07T08:39:18;63.70;;;34.27;;
27893;SDS011;15240;50.812;4.792;2022-12-07T08:41:45;58.93;;;33.17;;
27893;SDS011;15240;50.812;4.792;2022-12-07T08:44:11;61.03;;;32.47;;
27893;SDS011;15240;50.812;4.792;2022-12-07T08:46:45;63.53;;;34.47;;
27893;SDS011;15240;50.812;4.792;2022-12-07T08:49:33;60.73;;;33.23;;
27893;SDS011;15240;50.812;4.792;2022-12-07T08:51:58;55.77;;;31.33;;
27893;SDS011;15240;50.812;4.792;2022-12-07T08:54:24;56.80;;;31.50;;
27893;SDS011;15240;50.812;4.792;2022-12-07T08:56:50;51.27;;;30.20;;
27893;SDS011;15240;50.812;4.792;2022-12-07T08:59:17;56.87;;;30.73;;
27893;SDS011;15240;50.812;4.792;2022-12-07T09:01:43;55.80;;;31.47;;
27893;SDS011;15240;50.812;4.792;2022-12-07T09:04:09;56.53;;;33.00;;
27893;SDS011;15240;50.812;4.792;2022-12-07T09:06:36;58.57;;;33.27;;
27893;SDS011;15240;50.812;4.792;2022-12-07T09:09:02;56.33;;;33.67;;
27893;SDS011;15240;50.812;4.792;2022-12-07T09:11:28;50.87;;;31.80;;
27893;SDS011;15240;50.812;4.792;2022-12-07T09:13:55;52.83;;;32.23;;
27893;SDS011;15240;50.812;4.792;2022-12-07T09:16:21;60.03;;;31.93;;
27893;SDS011;15240;50.812;4.792;2022-12-07T09:18:47;51.50;;;29.67;;
27893;SDS011;15240;50.812;4.792;2022-12-07T09:21:13;52.43;;;31.53;;
27893;SDS011;15240;50.812;4.792;2022-12-07T09:23:40;56.77;;;29.70;;
27893;SDS011;15240;50.812;4.792;2022-12-07T09:26:07;48.57;;;28.83;;
27893;SDS011;15240;50.812;4.792;2022-12-07T09:28:33;43.37;;;28.50;;
27893;SDS011;15240;50.812;4.792;2022-12-07T09:30:59;44.80;;;27.77;;
27893;SDS011;15240;50.812;4.792;2022-12-07T09:33:25;40.47;;;26.23;;
27893;SDS011;15240;50.812;4.792;2022-12-07T09:35:51;43.87;;;25.73;;
27893;SDS011;15240;50.812;4.792;2022-12-07T09:38:18;50.27;;;24.80;;
27893;SDS011;15240;50.812;4.792;2022-12-07T09:40:44;37.87;;;23.97;;
27893;SDS011;15240;50.812;4.792;2022-12-07T09:43:14;42.33;;;24.03;;
27893;SDS011;15240;50.812;4.792;2022-12-07T09:45:41;37.10;;;20.50;;
27893;SDS011;15240;50.812;4.792;2022-12-07T09:48:18;36.23;;;21.20;;
27893;SDS011;15240;50.812;4.792;2022-12-07T09:50:45;28.03;;;17.90;;
27893;SDS011;15240;50.812;4.792;2022-12-07T09:53:20;24.33;;;15.07;;
27893;SDS011;15240;50.812;4.792;2022-12-07T09:55:48;28.57;;;14.03;;
27893;SDS011;15240;50.812;4.792;2022-12-07T09:58:17;24.07;;;12.83;;
27893;SDS011;15240;50.812;4.792;2022-12-07T10:00:45;23.47;;;13.20;;
27893;SDS011;15240;50.812;4.792;2022-12-07T10:03:11;22.90;;;12.87;;
27893;SDS011;15240;50.812;4.792;2022-12-07T10:08:04;24.60;;;13.73;;
27893;SDS011;15240;50.812;4.792;2022-12-07T10:10:31;20.77;;;12.97;;
27893;SDS011;15240;50.812;4.792;2022-12-07T10:15:37;26.07;;;13.73;;
27893;SDS011;15240;50.812;4.792;2022-12-07T10:18:13;20.47;;;13.33;;
27893;SDS011;15240;50.812;4.792;2022-12-07T10:20:42;23.50;;;13.33;;
27893;SDS011;15240;50.812;4.792;2022-12-07T10:23:14;24.97;;;13.00;;
27893;SDS011;15240;50.812;4.792;2022-12-07T10:25:40;21.33;;;13.27;;
27893;SDS011;15240;50.812;4.792;2022-12-07T10:30:45;23.43;;;13.77;;
27893;SDS011;15240;50.812;4.792;2022-12-07T10:33:27;22.57;;;13.80;;
27893;SDS011;15240;50.812;4.792;2022-12-07T10:35:54;24.10;;;14.33;;
27893;SDS011;15240;50.812;4.792;2022-12-07T10:38:20;24.87;;;12.80;;
27893;SDS011;15240;50.812;4.792;2022-12-07T10:40:46;21.73;;;12.93;;
27893;SDS011;15240;50.812;4.792;2022-12-07T10:48:19;19.60;;;12.10;;
27893;SDS011;15240;50.812;4.792;2022-12-07T10:53:38;22.23;;;11.30;;
27893;SDS011;15240;50.812;4.792;2022-12-07T11:01:39;18.87;;;10.93;;
27893;SDS011;15240;50.812;4.792;2022-12-07T11:17:23;14.30;;;6.70;;
27893;SDS011;15240;50.812;4.792;2022-12-07T11:20:34;16.53;;;6.60;;
27893;SDS011;15240;50.812;4.792;2022-12-07T11:25:16;13.40;;;6.27;;
27893;SDS011;15240;50.812;4.792;2022-12-07T11:27:48;10.70;;;6.10;;
27893;SDS011;15240;50.812;4.792;2022-12-07T11:30:23;15.07;;;5.97;;
27893;SDS011;15240;50.812;4.792;2022-12-07T11:38:01;12.93;;;7.50;;
27893;SDS011;15240;50.812;4.792;2022-12-07T11:40:34;14.47;;;8.03;;
27893;SDS011;15240;50.812;4.792;2022-12-07T11:45:41;18.80;;;8.90;;
27893;SDS011;15240;50.812;4.792;2022-12-07T11:50:41;16.33;;;8.57;;
27893;SDS011;15240;50.812;4.792;2022-12-07T12:01:01;13.73;;;7.73;;
27893;SDS011;15240;50.812;4.792;2022-12-07T12:03:31;14.97;;;7.63;;
27893;SDS011;15240;50.812;4.792;2022-12-07T12:05:59;16.97;;;7.43;;
27893;SDS011;15240;50.812;4.792;2022-12-07T12:08:38;14.93;;;7.47;;
27893;SDS011;15240;50.812;4.792;2022-12-07T12:11:18;13.73;;;7.20;;
27893;SDS011;15240;50.812;4.792;2022-12-07T12:13:54;14.67;;;6.87;;
27893;SDS011;15240;50.812;4.792;2022-12-07T12:19:25;17.97;;;7.20;;
27893;SDS011;15240;50.812;4.792;2022-12-07T12:21:43;11.63;;;6.73;;
27893;SDS011;15240;50.812;4.792;2022-12-07T12:24:16;13.03;;;6.80;;
27893;SDS011;15240;50.812;4.792;2022-12-07T12:26:51;13.97;;;7.93;;
27893;SDS011;15240;50.812;4.792;2022-12-07T12:29:23;16.03;;;8.03;;
27893;SDS011;15240;50.812;4.792;2022-12-07T12:34:41;17.70;;;8.80;;
27893;SDS011;15240;50.812;4.792;2022-12-07T12:42:46;15.77;;;8.43;;
27893;SDS011;15240;50.812;4.792;2022-12-07T12:50:23;16.07;;;8.50;;
27893;SDS011;15240;50.812;4.792;2022-12-07T12:55:17;15.00;;;8.17;;
27893;SDS011;15240;50.812;4.792;2022-12-07T12:57:46;13.57;;;7.90;;
27893;SDS011;15240;50.812;4.792;2022-12-07T13:00:16;11.43;;;7.63;;
27893;SDS011;15240;50.812;4.792;2022-12-07T13:02:52;17.67;;;7.83;;
27893;SDS011;15240;50.812;4.792;2022-12-07T13:05:27;14.77;;;8.00;;
27893;SDS011;15240;50.812;4.792;2022-12-07T13:07:55;15.87;;;7.67;;
27893;SDS011;15240;50.812;4.792;2022-12-07T13:15:44;12.97;;;7.17;;
27893;SDS011;15240;50.812;4.792;2022-12-07T13:21:43;12.87;;;7.73;;
27893;SDS011;15240;50.812;4.792;2022-12-07T13:28:41;12.43;;;7.50;;
27893;SDS011;15240;50.812;4.792;2022-12-07T13:33:43;16.63;;;7.90;;
27893;SDS011;15240;50.812;4.792;2022-12-07T13:36:21;15.70;;;7.93;;
27893;SDS011;15240;50.812;4.792;2022-12-07T13:38:48;13.00;;;8.00;;
27893;SDS011;15240;50.812;4.792;2022-12-07T13:41:16;12.33;;;8.17;;
27893;SDS011;15240;50.812;4.792;2022-12-07T13:43:49;15.90;;;8.30;;
27893;SDS011;15240;50.812;4.792;2022-12-07T13:46:15;13.87;;;8.13;;
27893;SDS011;15240;50.812;4.792;2022-12-07T13:48:45;14.13;;;7.67;;
27893;SDS011;15240;50.812;4.792;2022-12-07T13:51:21;13.03;;;7.80;;
27893;SDS011;15240;50.812;4.792;2022-12-07T13:53:51;10.50;;;7.27;;
27893;SDS011;15240;50.812;4.792;2022-12-07T13:56:17;10.90;;;6.60;;
27893;SDS011;15240;50.812;4.792;2022-12-07T13:58:43;13.80;;;6.80;;
27893;SDS011;15240;50.812;4.792;2022-12-07T14:01:09;10.27;;;6.33;;
27893;SDS011;15240;50.812;4.792;2022-12-07T14:03:36;12.13;;;6.33;;
27893;SDS011;15240;50.812;4.792;2022-12-07T14:06:17;11.50;;;5.77;;
27893;SDS011;15240;50.812;4.792;2022-12-07T14:08:43;12.33;;;6.50;;
27893;SDS011;15240;50.812;4.792;2022-12-07T14:11:13;11.77;;;6.10;;
27893;SDS011;15240;50.812;4.792;2022-12-07T14:16:22;10.43;;;6.13;;
27893;SDS011;15240;50.812;4.792;2022-12-07T14:18:52;13.93;;;6.27;;
27893;SDS011;15240;50.812;4.792;2022-12-07T14:21:19;9.53;;;5.83;;
27893;SDS011;15240;50.812;4.792;2022-12-07T14:26:32;11.83;;;5.27;;
27893;SDS011;15240;50.812;4.792;2022-12-07T14:31:43;11.97;;;5.20;;
27893;SDS011;15240;50.812;4.792;2022-12-07T14:34:12;7.87;;;4.73;;
27893;SDS011;15240;50.812;4.792;2022-12-07T14:36:39;10.30;;;4.57;;
27893;SDS011;15240;50.812;4.792;2022-12-07T14:39:05;7.70;;;4.23;;
27893;SDS011;15240;50.812;4.792;2022-12-07T14:41:31;11.83;;;4.07;;
27893;SDS011;15240;50.812;4.792;2022-12-07T14:44:15;9.10;;;4.17;;
27893;SDS011;15240;50.812;4.792;2022-12-07T14:46:41;7.43;;;3.90;;
27893;SDS011;15240;50.812;4.792;2022-12-07T14:49:07;11.10;;;3.97;;
27893;SDS011;15240;50.812;4.792;2022-12-07T14:51:33;10.33;;;4.13;;
27893;SDS011;15240;50.812;4.792;2022-12-07T14:54:01;5.63;;;3.70;;
27893;SDS011;15240;50.812;4.792;2022-12-07T14:56:28;8.73;;;4.43;;
27893;SDS011;15240;50.812;4.792;2022-12-07T14:58:54;8.80;;;4.27;;
27893;SDS011;15240;50.812;4.792;2022-12-07T15:01:20;13.33;;;4.80;;
27893;SDS011;15240;50.812;4.792;2022-12-07T15:03:47;12.03;;;5.10;;
27893;SDS011;15240;50.812;4.792;2022-12-07T15:06:14;13.53;;;6.80;;
27893;SDS011;15240;50.812;4.792;2022-12-07T15:08:40;9.70;;;7.07;;
27893;SDS011;15240;50.812;4.792;2022-12-07T15:11:06;8.70;;;6.43;;
27893;SDS011;15240;50.812;4.792;2022-12-07T15:13:32;10.73;;;6.53;;
27893;SDS011;15240;50.812;4.792;2022-12-07T15:16:18;11.27;;;6.57;;
27893;SDS011;15240;50.812;4.792;2022-12-07T15:18:45;12.00;;;7.33;;
27893;SDS011;15240;50.812;4.792;2022-12-07T15:21:15;12.07;;;6.47;;
27893;SDS011;15240;50.812;4.792;2022-12-07T15:23:41;11.07;;;6.50;;
27893;SDS011;15240;50.812;4.792;2022-12-07T15:26:09;10.03;;;5.73;;
27893;SDS011;15240;50.812;4.792;2022-12-07T15:28:35;11.87;;;5.77;;
27893;SDS011;15240;50.812;4.792;2022-12-07T15:31:01;6.30;;;4.83;;
27893;SDS011;15240;50.812;4.792;2022-12-07T15:33:27;8.57;;;5.33;;
27893;SDS011;15240;50.812;4.792;2022-12-07T15:35:53;6.03;;;4.63;;
27893;SDS011;15240;50.812;4.792;2022-12-07T15:38:19;7.13;;;5.10;;
27893;SDS011;15240;50.812;4.792;2022-12-07T15:40:48;5.10;;;4.40;;
27893;SDS011;15240;50.812;4.792;2022-12-07T15:43:14;9.20;;;4.73;;
27893;SDS011;15240;50.812;4.792;2022-12-07T15:45:59;7.33;;;4.80;;
27893;SDS011;15240;50.812;4.792;2022-12-07T15:48:25;7.73;;;4.70;;
27893;SDS011;15240;50.812;4.792;2022-12-07T15:50:51;9.90;;;5.13;;
27893;SDS011;15240;50.812;4.792;2022-12-07T15:53:17;6.53;;;4.57;;
27893;SDS011;15240;50.812;4.792;2022-12-07T15:55:43;7.83;;;5.03;;
27893;SDS011;15240;50.812;4.792;2022-12-07T15:58:09;8.83;;;5.23;;
27893;SDS011;15240;50.812;4.792;2022-12-07T16:00:35;7.97;;;4.87;;
27893;SDS011;15240;50.812;4.792;2022-12-07T16:03:01;12.23;;;5.40;;
27893;SDS011;15240;50.812;4.792;2022-12-07T16:05:27;11.00;;;6.17;;
27893;SDS011;15240;50.812;4.792;2022-12-07T16:07:53;10.93;;;7.07;;
27893;SDS011;15240;50.812;4.792;2022-12-07T16:10:19;8.67;;;6.70;;
27893;SDS011;15240;50.812;4.792;2022-12-07T16:12:45;10.70;;;6.53;;
27893;SDS011;15240;50.812;4.792;2022-12-07T16:15:11;9.47;;;6.93;;
27893;SDS011;15240;50.812;4.792;2022-12-07T16:17:37;13.20;;;8.10;;
27893;SDS011;15240;50.812;4.792;2022-12-07T16:20:03;10.87;;;7.83;;
27893;SDS011;15240;50.812;4.792;2022-12-07T16:22:30;12.50;;;8.50;;
27893;SDS011;15240;50.812;4.792;2022-12-07T16:24:56;13.30;;;8.00;;
27893;SDS011;15240;50.812;4.792;2022-12-07T16:27:22;12.93;;;8.33;;